Time;durP1;ratioP1;P1;durP2;ratioP2;P2;SDS_P1;SDS_P2;PMS_P1;PMS_P2;Temp;Humidity;BMP_temperature;BMP_pressure;BME280_temperature;BME280_humidity;BME280_pressure;Samples;Min_cycle;Max_cycle;Signal;HPM_P1;HPM_P2
2021/05/03 00:01:30;;;;;;;0.60;0.60;;;13.30;99.90;;;;;;4876772;29;20498;-76
2021/05/03 00:03:55;;;;;;;0.70;0.70;;;13.30;99.90;;;;;;4877151;29;20043;-76
2021/05/03 00:06:21;;;;;;;1.27;0.50;;;13.30;99.90;;;;;;4877105;29;20107;-76
2021/05/03 00:08:47;;;;;;;1.48;0.70;;;13.30;99.90;;;;;;4877779;29;20032;-76
2021/05/03 00:11:13;;;;;;;1.33;0.70;;;13.30;99.90;;;;;;4860965;29;20534;-76
2021/05/03 00:13:38;;;;;;;0.50;0.50;;;13.20;99.90;;;;;;4877805;29;20025;-76
2021/05/03 00:16:05;;;;;;;0.93;0.70;;;13.20;99.90;;;;;;4877620;29;20029;-76
2021/05/03 00:18:31;;;;;;;0.43;0.43;;;13.20;99.90;;;;;;4876414;29;20030;-76
2021/05/03 00:20:56;;;;;;;0.60;0.60;;;13.10;99.90;;;;;;4877573;29;20040;-76
2021/05/03 00:23:22;;;;;;;0.60;0.60;;;13.20;99.90;;;;;;4879841;29;20081;-76
2021/05/03 00:25:48;;;;;;;1.10;0.70;;;13.20;99.90;;;;;;4860821;29;20037;-77
2021/05/03 00:28:14;;;;;;;0.65;0.55;;;13.10;99.90;;;;;;4877486;29;20060;-76
2021/05/03 00:30:39;;;;;;;0.65;0.65;;;13.10;99.90;;;;;;4877484;29;20036;-77
2021/05/03 00:33:05;;;;;;;0.52;0.52;;;13.10;99.90;;;;;;4877612;29;20033;-77
2021/05/03 00:35:32;;;;;;;0.82;0.82;;;13.10;99.90;;;;;;4877606;29;20025;-76
2021/05/03 00:38:00;;;;;;;0.70;0.52;;;13.10;99.90;;;;;;4877457;29;20029;-76
2021/05/03 00:40:26;;;;;;;0.73;0.65;;;12.90;99.90;;;;;;4860637;29;20501;-76
2021/05/03 00:42:51;;;;;;;1.02;0.90;;;12.90;99.90;;;;;;4877484;29;20037;-76
2021/05/03 00:45:19;;;;;;;0.52;0.52;;;12.80;99.90;;;;;;4877508;29;20734;-76
2021/05/03 00:47:45;;;;;;;0.70;0.70;;;12.80;99.90;;;;;;4876133;29;20493;-76
2021/05/03 00:50:14;;;;;;;0.70;0.70;;;12.80;99.90;;;;;;4860518;29;20525;-76
2021/05/03 00:52:40;;;;;;;2.67;0.60;;;12.60;99.90;;;;;;4863529;29;20036;-77
2021/05/03 00:55:07;;;;;;;0.82;0.82;;;12.60;99.90;;;;;;4880909;29;20029;-76
2021/05/03 00:57:34;;;;;;;0.65;0.50;;;12.60;99.90;;;;;;4880916;29;20100;-76
2021/05/03 00:59:59;;;;;;;0.80;0.80;;;12.70;99.90;;;;;;4880847;29;20041;-77
2021/05/03 01:02:25;;;;;;;0.70;0.70;;;12.60;99.90;;;;;;4880837;29;20370;-76
2021/05/03 01:04:51;;;;;;;0.50;0.50;;;12.70;99.90;;;;;;4880686;29;20052;-76
2021/05/03 01:07:17;;;;;;;0.73;0.73;;;12.60;99.90;;;;;;4880678;29;20044;-76
2021/05/03 01:09:43;;;;;;;0.80;0.80;;;12.60;99.90;;;;;;4880523;29;20032;-76
2021/05/03 01:12:09;;;;;;;0.73;0.73;;;12.60;99.90;;;;;;4863787;29;20607;-76
2021/05/03 01:14:36;;;;;;;0.98;0.77;;;12.70;99.90;;;;;;4863920;29;20063;-76
2021/05/03 01:17:02;;;;;;;0.70;0.70;;;12.70;99.90;;;;;;4880653;29;20397;-76
2021/05/03 01:19:29;;;;;;;0.55;0.55;;;12.70;99.90;;;;;;4880613;29;20112;-76
2021/05/03 01:21:55;;;;;;;0.90;0.90;;;12.70;99.90;;;;;;4880352;29;20135;-77
2021/05/03 01:24:21;;;;;;;0.50;0.50;;;12.80;99.90;;;;;;4880368;29;20469;-76
2021/05/03 01:26:47;;;;;;;0.80;0.80;;;12.70;99.90;;;;;;4863564;29;20033;-76
2021/05/03 01:29:14;;;;;;;0.93;0.70;;;12.70;99.90;;;;;;4880227;29;20098;-76
2021/05/03 01:31:45;;;;;;;0.73;0.73;;;12.80;99.90;;;;;;4863482;29;20092;-76
2021/05/03 01:34:11;;;;;;;0.60;0.60;;;12.80;99.90;;;;;;4880237;29;20029;-77
2021/05/03 01:36:38;;;;;;;0.75;0.75;;;12.80;99.90;;;;;;4880180;29;20035;-77
2021/05/03 01:39:08;;;;;;;0.50;0.50;;;12.70;99.90;;;;;;4880095;29;20037;-76
2021/05/03 01:41:35;;;;;;;0.60;0.60;;;12.80;99.90;;;;;;4880012;29;20032;-77
2021/05/03 01:44:02;;;;;;;0.60;0.60;;;12.80;99.90;;;;;;4878806;29;20029;-76
2021/05/03 01:46:28;;;;;;;0.70;0.70;;;12.70;99.90;;;;;;4863228;29;20025;-77
2021/05/03 01:48:58;;;;;;;0.70;0.60;;;12.70;99.90;;;;;;4879899;29;20443;-76
2021/05/03 01:51:24;;;;;;;0.50;0.50;;;12.70;99.90;;;;;;4879730;29;20389;-76
2021/05/03 01:53:50;;;;;;;0.82;0.82;;;12.60;99.90;;;;;;4879821;29;20029;-76
2021/05/03 01:56:16;;;;;;;0.70;0.70;;;12.50;99.90;;;;;;4863143;29;20086;-76
2021/05/03 01:58:42;;;;;;;0.80;0.80;;;12.60;99.90;;;;;;4878371;29;20040;-76
2021/05/03 02:01:08;;;;;;;4.47;0.90;;;12.60;99.90;;;;;;4863039;29;20466;-76
2021/05/03 02:03:34;;;;;;;1.88;0.63;;;12.60;99.90;;;;;;4878690;29;20120;-76
2021/05/03 02:06:00;;;;;;;4.90;1.02;;;12.60;99.90;;;;;;4862868;29;20065;-77
2021/05/03 02:08:26;;;;;;;0.82;0.80;;;12.50;99.90;;;;;;4879563;29;20111;-76
2021/05/03 02:10:53;;;;;;;0.50;0.50;;;12.50;99.90;;;;;;4862791;29;20097;-77
2021/05/03 02:13:20;;;;;;;0.70;0.70;;;12.50;99.90;;;;;;4879482;29;20021;-76
2021/05/03 02:15:47;;;;;;;0.80;0.80;;;12.50;99.90;;;;;;4879573;29;20389;-76
2021/05/03 02:18:13;;;;;;;0.85;0.85;;;12.50;99.90;;;;;;4879511;29;20021;-76
2021/05/03 02:20:39;;;;;;;1.58;0.77;;;12.50;99.90;;;;;;4881713;29;20504;-76
2021/05/03 02:23:05;;;;;;;0.55;0.55;;;12.50;99.90;;;;;;4862652;29;20389;-76
2021/05/03 02:25:31;;;;;;;0.70;0.70;;;12.50;99.90;;;;;;4879298;29;20569;-76
2021/05/03 02:27:58;;;;;;;0.88;0.80;;;12.50;99.90;;;;;;4879245;29;20062;-76
2021/05/03 02:30:24;;;;;;;1.15;0.85;;;12.50;99.90;;;;;;4862267;29;20033;-76
2021/05/03 02:32:50;;;;;;;0.80;0.80;;;12.50;99.90;;;;;;4879146;29;20536;-77
2021/05/03 02:35:18;;;;;;;0.60;0.60;;;12.50;99.90;;;;;;4879061;29;20108;-77
2021/05/03 02:37:47;;;;;;;0.88;0.60;;;12.50;99.90;;;;;;4877829;29;20025;-77
2021/05/03 02:40:14;;;;;;;2.00;0.90;;;12.50;99.90;;;;;;4878954;29;20029;-77
2021/05/03 02:42:40;;;;;;;0.73;0.73;;;12.40;99.90;;;;;;4879071;29;20036;-76
2021/05/03 02:45:06;;;;;;;0.70;0.70;;;12.40;99.90;;;;;;4879091;29;20029;-76
2021/05/03 02:47:32;;;;;;;0.90;0.90;;;12.40;99.90;;;;;;4878926;29;20029;-77
2021/05/03 02:49:58;;;;;;;1.77;0.93;;;12.40;99.90;;;;;;4878734;29;20036;-76
2021/05/03 02:52:23;;;;;;;0.60;0.60;;;12.40;99.90;;;;;;4879088;29;20021;-76
2021/05/03 02:54:49;;;;;;;0.60;0.60;;;12.30;99.90;;;;;;4878787;29;20037;-77
2021/05/03 02:57:15;;;;;;;0.80;0.80;;;12.30;99.90;;;;;;4862044;29;20021;-76
2021/05/03 02:59:41;;;;;;;1.00;0.70;;;12.40;99.90;;;;;;4878481;29;20067;-76
2021/05/03 03:02:08;;;;;;;0.98;0.68;;;12.40;99.90;;;;;;4878583;29;20103;-76
2021/05/03 03:04:34;;;;;;;0.68;0.68;;;12.30;99.90;;;;;;4878627;29;20033;-76
2021/05/03 03:06:59;;;;;;;0.60;0.60;;;12.20;99.90;;;;;;4878777;29;20033;-76
2021/05/03 03:09:25;;;;;;;0.80;0.80;;;12.20;99.90;;;;;;4878638;29;20401;-76
2021/05/03 03:11:51;;;;;;;0.63;0.63;;;12.30;99.90;;;;;;4877166;29;20025;-77
2021/05/03 03:14:17;;;;;;;0.60;0.60;;;12.30;99.90;;;;;;4878328;29;20445;-76
2021/05/03 03:16:42;;;;;;;1.13;1.02;;;12.20;99.90;;;;;;4878347;29;20025;-76
2021/05/03 03:19:08;;;;;;;0.88;0.88;;;12.20;99.90;;;;;;4878352;29;20037;-77
2021/05/03 03:21:34;;;;;;;0.80;0.80;;;12.20;99.90;;;;;;4878456;29;20084;-76
2021/05/03 03:24:00;;;;;;;3.00;0.65;;;12.20;99.90;;;;;;4878415;29;20025;-77
2021/05/03 03:26:26;;;;;;;0.95;0.95;;;12.10;99.90;;;;;;4878287;29;20040;-76
2021/05/03 03:28:51;;;;;;;1.38;0.75;;;12.10;99.90;;;;;;4878082;29;20040;-76
2021/05/03 03:31:17;;;;;;;1.48;1.05;;;12.00;99.90;;;;;;4861345;29;20048;-76
2021/05/03 03:33:43;;;;;;;0.75;0.75;;;12.00;99.90;;;;;;4878144;29;20508;-76
2021/05/03 03:36:09;;;;;;;0.70;0.70;;;12.00;99.90;;;;;;4878183;29;20017;-77
2021/05/03 03:38:35;;;;;;;0.70;0.70;;;11.90;99.90;;;;;;4861536;29;20068;-76
2021/05/03 03:41:01;;;;;;;0.70;0.70;;;11.90;99.90;;;;;;4878088;29;20446;-77
2021/05/03 03:43:27;;;;;;;1.30;0.93;;;11.90;99.90;;;;;;4878003;29;20033;-76
2021/05/03 03:45:53;;;;;;;1.08;0.98;;;11.90;99.90;;;;;;4877924;29;20052;-76
2021/05/03 03:48:18;;;;;;;0.98;0.98;;;11.70;99.90;;;;;;4861207;29;20068;-76
2021/05/03 03:50:44;;;;;;;1.10;1.10;;;11.70;99.90;;;;;;4876589;29;20025;-76
2021/05/03 03:53:10;;;;;;;1.98;1.02;;;11.70;99.90;;;;;;4877863;29;20028;-77
2021/05/03 03:55:36;;;;;;;0.80;0.80;;;11.70;99.90;;;;;;4876550;29;20148;-76
2021/05/03 03:58:02;;;;;;;0.80;0.80;;;11.70;99.90;;;;;;4876656;29;20025;-76
2021/05/03 04:00:28;;;;;;;0.77;0.77;;;11.70;99.90;;;;;;4860967;29;20084;-76
2021/05/03 04:02:54;;;;;;;0.70;0.70;;;11.70;99.90;;;;;;4877808;29;20029;-76
2021/05/03 04:05:38;;;;;;;0.75;0.75;;;11.70;99.90;;;;;;4876511;29;20036;-76
2021/05/03 04:08:22;;;;;;;0.70;0.70;;;11.70;99.90;;;;;;4877799;29;20393;-76
2021/05/03 04:23:53;;;;;;;1.10;0.93;;;11.50;99.90;;;;;;4877560;29;20037;-77
2021/05/03 04:26:20;;;;;;;0.70;0.70;;;11.50;99.90;;;;;;4878589;29;20510;-76
2021/05/03 04:28:48;;;;;;;0.90;0.90;;;11.50;99.90;;;;;;4864666;29;20084;-76
2021/05/03 04:31:14;;;;;;;0.90;0.90;;;11.50;99.90;;;;;;4881273;29;20541;-76
2021/05/03 04:33:40;;;;;;;0.70;0.70;;;11.40;99.90;;;;;;4881384;29;20393;-76
2021/05/03 04:36:07;;;;;;;0.90;0.90;;;11.50;99.90;;;;;;4864467;29;20056;-76
2021/05/03 04:38:34;;;;;;;0.70;0.70;;;11.50;99.90;;;;;;4881226;29;20613;-76
2021/05/03 04:40:59;;;;;;;2.55;0.80;;;11.50;99.90;;;;;;4881219;29;20037;-77
2021/05/03 04:43:25;;;;;;;1.58;0.77;;;11.40;99.90;;;;;;4881154;29;20028;-77
2021/05/03 04:45:51;;;;;;;0.82;0.82;;;11.40;99.90;;;;;;4881154;29;20181;-77
2021/05/03 04:48:17;;;;;;;1.10;1.00;;;11.40;99.90;;;;;;4880975;29;20053;-77
2021/05/03 04:50:43;;;;;;;3.47;0.98;;;11.30;99.90;;;;;;4880914;29;20052;-74
2021/05/03 04:53:09;;;;;;;0.90;0.90;;;11.40;99.90;;;;;;4879821;29;20028;-77
2021/05/03 04:55:35;;;;;;;1.50;1.40;;;11.40;99.90;;;;;;4881001;29;20021;-77
2021/05/03 04:58:01;;;;;;;1.85;0.88;;;11.40;99.90;;;;;;4880843;29;20029;-77
2021/05/03 05:00:27;;;;;;;1.77;0.75;;;11.40;99.90;;;;;;4879342;29;20059;-77
2021/05/03 05:02:52;;;;;;;3.13;1.20;;;11.30;99.90;;;;;;4880783;29;20111;-77
2021/05/03 05:05:18;;;;;;;1.25;0.70;;;11.40;99.90;;;;;;4880630;29;20112;-77
2021/05/03 05:07:44;;;;;;;1.00;1.00;;;11.40;99.90;;;;;;4880896;29;20029;-77
2021/05/03 05:10:11;;;;;;;1.27;0.90;;;11.50;99.90;;;;;;4880625;29;20052;-77
2021/05/03 05:12:37;;;;;;;0.75;0.75;;;11.50;99.90;;;;;;4863943;29;20405;-77
2021/05/03 05:15:05;;;;;;;0.90;0.90;;;11.60;99.90;;;;;;4880512;29;20505;-77
2021/05/03 05:17:31;;;;;;;0.63;0.63;;;11.60;99.90;;;;;;4880443;29;20037;-77
2021/05/03 05:19:57;;;;;;;0.82;0.82;;;11.60;99.90;;;;;;4863520;29;20041;-77
2021/05/03 05:22:24;;;;;;;0.90;0.90;;;11.50;99.90;;;;;;4864231;29;20053;-77
2021/05/03 05:24:50;;;;;;;0.80;0.80;;;11.50;99.90;;;;;;4880769;29;20029;-77
2021/05/03 05:27:15;;;;;;;0.70;0.70;;;11.60;99.90;;;;;;4860862;29;20033;-77
2021/05/03 05:29:41;;;;;;;0.60;0.60;;;11.70;99.90;;;;;;4861565;29;20033;-77
2021/05/03 05:32:07;;;;;;;0.73;0.73;;;11.80;99.90;;;;;;4861424;29;20026;-77
2021/05/03 05:34:33;;;;;;;1.55;0.90;;;11.90;99.90;;;;;;4859996;29;20032;-77
2021/05/03 05:36:59;;;;;;;1.00;0.90;;;11.90;99.90;;;;;;4843040;29;20030;-77
2021/05/03 05:39:24;;;;;;;0.80;0.80;;;12.00;99.90;;;;;;4859749;29;20509;-77
2021/05/03 05:41:50;;;;;;;0.70;0.70;;;12.00;99.90;;;;;;4858556;29;20080;-77
2021/05/03 05:44:16;;;;;;;1.20;1.10;;;12.10;99.90;;;;;;4858503;29;20037;-77
2021/05/03 05:46:44;;;;;;;0.73;0.73;;;12.10;99.90;;;;;;4859725;29;20029;-78
2021/05/03 05:49:10;;;;;;;1.05;1.05;;;12.20;99.90;;;;;;4861185;29;20037;-77
2021/05/03 05:51:35;;;;;;;0.98;0.98;;;12.20;99.90;;;;;;4844789;29;20032;-77
2021/05/03 05:54:01;;;;;;;1.08;1.08;;;12.20;99.90;;;;;;4861329;29;20030;-77
2021/05/03 05:56:27;;;;;;;1.13;0.95;;;12.20;99.90;;;;;;4859990;29;20056;-77
2021/05/03 05:58:53;;;;;;;2.38;1.13;;;12.20;99.90;;;;;;4878356;29;20033;-77
2021/05/03 06:01:18;;;;;;;1.00;1.00;;;12.20;99.90;;;;;;4879584;29;20033;-77
2021/05/03 06:03:44;;;;;;;1.08;1.08;;;12.30;99.90;;;;;;4879828;29;20029;-77
2021/05/03 06:06:11;;;;;;;1.00;1.00;;;12.30;99.90;;;;;;4878583;29;20056;-77
2021/05/03 06:08:37;;;;;;;2.78;1.67;;;12.30;99.90;;;;;;4879653;29;20033;-77
2021/05/03 06:11:03;;;;;;;2.50;2.30;;;12.40;99.90;;;;;;4862903;29;20032;-77
2021/05/03 06:13:28;;;;;;;3.65;2.50;;;12.30;99.90;;;;;;4862885;29;20025;-77
2021/05/03 06:15:55;;;;;;;2.25;2.15;;;12.30;99.90;;;;;;4862691;29;20070;-77
2021/05/03 06:18:21;;;;;;;1.98;1.88;;;12.40;99.90;;;;;;4879456;29;20474;-77
2021/05/03 06:20:47;;;;;;;1.80;1.70;;;12.40;99.90;;;;;;4879324;29;20029;-77
2021/05/03 06:23:13;;;;;;;1.70;1.60;;;12.50;99.90;;;;;;4862720;29;20025;-77
2021/05/03 06:25:43;;;;;;;4.35;1.25;;;12.60;99.90;;;;;;4881645;29;20035;-77
2021/05/03 06:28:09;;;;;;;1.13;1.13;;;12.60;99.90;;;;;;4879264;29;20052;-77
2021/05/03 06:30:35;;;;;;;1.30;1.00;;;12.60;99.90;;;;;;4862343;29;20437;-77
2021/05/03 06:33:01;;;;;;;1.50;0.90;;;12.60;99.90;;;;;;4879408;29;20033;-77
2021/05/03 06:35:27;;;;;;;1.23;1.20;;;12.70;99.90;;;;;;4862467;29;20117;-77
2021/05/03 06:37:53;;;;;;;1.13;1.02;;;12.70;99.90;;;;;;4879266;29;20450;-77
2021/05/03 06:40:19;;;;;;;1.05;1.05;;;12.80;99.90;;;;;;4862478;29;20115;-77
2021/05/03 06:42:49;;;;;;;1.38;1.27;;;12.90;99.90;;;;;;4862332;29;20121;-77
2021/05/03 06:45:18;;;;;;;1.20;1.17;;;12.90;99.90;;;;;;4878984;29;20021;-77
2021/05/03 06:47:45;;;;;;;1.30;1.30;;;12.90;99.90;;;;;;4862564;29;20037;-77
2021/05/03 06:50:13;;;;;;;3.17;1.50;;;12.90;99.90;;;;;;4862661;29;20033;-77
2021/05/03 06:52:44;;;;;;;0.95;0.95;;;13.00;99.90;;;;;;4863058;29;20025;-77
2021/05/03 06:55:11;;;;;;;0.80;0.80;;;13.00;99.90;;;;;;4878638;29;20040;-80
2021/05/03 06:57:37;;;;;;;0.85;0.85;;;13.10;99.90;;;;;;4879701;29;20033;-81
2021/05/03 07:00:05;;;;;;;0.90;0.90;;;13.10;99.90;;;;;;4879543;29;20114;-81
2021/05/03 07:02:30;;;;;;;1.40;1.30;;;13.10;99.90;;;;;;4879643;29;20043;-81
2021/05/03 07:04:56;;;;;;;0.88;0.88;;;13.20;99.90;;;;;;4879624;29;20437;-80
2021/05/03 07:07:22;;;;;;;0.93;0.82;;;13.20;99.90;;;;;;4879605;29;20064;-81
2021/05/03 07:09:48;;;;;;;0.77;0.77;;;13.30;99.90;;;;;;4879675;29;20044;-80
2021/05/03 07:12:22;;;;;;;1.40;1.05;;;13.30;99.90;;;;;;4879813;29;20099;-80
2021/05/03 07:14:49;;;;;;;1.02;1.02;;;13.30;99.90;;;;;;4879873;29;20017;-81
2021/05/03 07:17:15;;;;;;;0.70;0.70;;;13.40;99.90;;;;;;4879895;29;20029;-81
2021/05/03 07:19:41;;;;;;;0.95;0.80;;;13.40;99.90;;;;;;4879629;29;20056;-80
2021/05/03 07:22:09;;;;;;;1.00;1.00;;;13.40;99.90;;;;;;4879725;29;20403;-81
2021/05/03 07:24:40;;;;;;;0.75;0.75;;;13.50;99.90;;;;;;4879633;29;20084;-81
2021/05/03 07:27:10;;;;;;;1.02;0.93;;;13.60;99.90;;;;;;4879599;29;20120;-81
2021/05/03 07:29:37;;;;;;;0.70;0.70;;;13.70;99.90;;;;;;4862744;29;20033;-81
2021/05/03 07:32:04;;;;;;;0.80;0.77;;;13.60;99.90;;;;;;4879658;29;20025;-81
2021/05/03 07:34:29;;;;;;;0.90;0.90;;;13.70;99.90;;;;;;4862944;29;20029;-80
2021/05/03 07:36:55;;;;;;;0.70;0.70;;;13.70;99.90;;;;;;4876813;29;20021;-80
2021/05/03 07:39:21;;;;;;;4.32;0.90;;;13.70;99.90;;;;;;4877002;29;20066;-80
2021/05/03 07:41:47;;;;;;;6.30;0.88;;;13.70;99.90;;;;;;4860388;29;20391;-81
2021/05/03 07:44:12;;;;;;;2.25;0.70;;;13.70;99.90;;;;;;4876375;29;20397;-80
2021/05/03 07:46:38;;;;;;;0.75;0.70;;;13.80;99.90;;;;;;4877303;29;20080;-81
2021/05/03 07:49:06;;;;;;;0.50;0.50;;;13.80;99.90;;;;;;4859238;29;20857;-81
2021/05/03 07:51:32;;;;;;;3.30;0.93;;;13.90;99.90;;;;;;4876169;29;20081;-81
2021/05/03 07:54:00;;;;;;;2.63;0.60;;;13.90;99.90;;;;;;4876716;29;20107;-81
2021/05/03 07:56:28;;;;;;;0.70;0.70;;;14.00;99.90;;;;;;4875451;29;20119;-81
2021/05/03 07:58:54;;;;;;;2.75;1.00;;;14.00;99.90;;;;;;4859329;29;20029;-81
2021/05/03 08:01:20;;;;;;;0.70;0.70;;;14.00;99.90;;;;;;4876773;29;20033;-81
2021/05/03 08:03:46;;;;;;;1.10;0.65;;;14.00;99.90;;;;;;4880394;29;20413;-80
2021/05/03 08:06:14;;;;;;;1.25;1.15;;;14.10;99.90;;;;;;4875532;29;20040;-81
2021/05/03 08:08:44;;;;;;;2.65;1.33;;;14.10;99.90;;;;;;4875160;29;20727;-81
2021/05/03 08:11:11;;;;;;;1.38;1.25;;;14.10;99.90;;;;;;4874461;29;20025;-81
2021/05/03 08:13:38;;;;;;;1.00;1.00;;;14.20;99.90;;;;;;4874798;29;20489;-81
2021/05/03 08:16:07;;;;;;;2.28;1.40;;;14.20;99.90;;;;;;4858229;29;20055;-81
2021/05/03 08:18:32;;;;;;;1.23;1.10;;;14.20;99.90;;;;;;4857237;29;20393;-80
2021/05/03 08:20:58;;;;;;;2.40;1.30;;;14.20;99.90;;;;;;4874241;29;20025;-81
2021/05/03 08:23:25;;;;;;;1.75;1.20;;;14.30;99.90;;;;;;4874543;29;20128;-80
2021/05/03 08:25:53;;;;;;;1.63;1.30;;;14.30;99.90;;;;;;4875503;29;20033;-80
2021/05/03 08:28:19;;;;;;;2.20;1.67;;;14.30;99.90;;;;;;4865082;29;20033;-80
2021/05/03 08:30:46;;;;;;;2.35;1.52;;;14.40;99.90;;;;;;4858913;29;20032;-80
2021/05/03 08:33:13;;;;;;;3.35;1.35;;;14.40;99.90;;;;;;4858929;29;20124;-80
2021/05/03 08:35:40;;;;;;;2.67;1.70;;;14.50;99.90;;;;;;4859894;29;20025;-80
2021/05/03 08:38:05;;;;;;;3.42;1.80;;;14.50;99.90;;;;;;4859259;29;20100;-80
2021/05/03 08:40:35;;;;;;;3.97;1.63;;;14.50;99.90;;;;;;4875481;29;20025;-79
2021/05/03 08:43:02;;;;;;;2.78;2.05;;;14.50;99.90;;;;;;4859438;29;20025;-80
2021/05/03 08:45:29;;;;;;;3.40;2.15;;;14.50;99.90;;;;;;4875900;29;20045;-76
2021/05/03 08:48:11;;;;;;;3.15;1.85;;;14.60;99.90;;;;;;4875032;29;20029;-78
2021/05/03 08:50:54;;;;;;;2.22;1.65;;;14.70;99.90;;;;;;4864788;29;20025;-80
2021/05/03 08:53:35;;;;;;;2.08;1.88;;;14.80;99.90;;;;;;4880877;29;20033;-80
2021/05/03 08:56:01;;;;;;;2.42;2.10;;;14.70;99.90;;;;;;4864653;29;20024;-81
2021/05/03 08:58:28;;;;;;;1.73;1.63;;;14.70;99.90;;;;;;4883725;29;20108;-78
2021/05/03 09:00:54;;;;;;;1.42;1.27;;;14.60;99.90;;;;;;4883809;29;20033;-81
2021/05/03 09:03:20;;;;;;;3.13;1.83;;;14.70;99.90;;;;;;4883063;29;20047;-81
2021/05/03 09:05:49;;;;;;;2.33;1.65;;;14.90;99.90;;;;;;4885535;29;20025;-80
2021/05/03 09:08:29;;;;;;;2.17;1.70;;;14.90;99.90;;;;;;4867853;29;20080;-80
2021/05/03 09:10:56;;;;;;;1.60;1.15;;;15.00;99.90;;;;;;4883243;29;20021;-80
2021/05/03 09:13:32;;;;;;;1.30;1.20;;;15.10;99.90;;;;;;4885168;29;20116;-79
2021/05/03 09:16:17;;;;;;;2.35;1.48;;;15.10;99.90;;;;;;4868633;29;20024;-79
2021/05/03 09:18:45;;;;;;;2.83;1.38;;;15.00;99.90;;;;;;4866324;29;20037;-81
2021/05/03 09:21:23;;;;;;;1.98;1.25;;;15.00;99.90;;;;;;4886093;29;20033;-80
2021/05/03 09:24:03;;;;;;;1.63;1.52;;;15.00;99.90;;;;;;4870036;29;20037;-78
2021/05/03 09:26:34;;;;;;;1.60;1.30;;;15.00;99.90;;;;;;4897451;29;20020;-80
2021/05/03 09:29:00;;;;;;;1.50;1.40;;;15.00;99.90;;;;;;4869065;29;20037;-80
2021/05/03 09:31:26;;;;;;;1.75;1.65;;;15.20;99.90;;;;;;4867480;29;20093;-81
2021/05/03 09:33:51;;;;;;;1.50;1.40;;;15.30;99.90;;;;;;4886039;29;20096;-81
2021/05/03 09:36:21;;;;;;;1.90;1.58;;;15.30;99.90;;;;;;4878467;29;20056;-81
2021/05/03 09:38:48;;;;;;;1.38;1.27;;;15.20;99.90;;;;;;4856621;29;20116;-80
2021/05/03 09:41:28;;;;;;;1.50;1.40;;;15.20;99.90;;;;;;4875403;29;20512;-79
2021/05/03 09:44:03;;;;;;;2.42;1.73;;;15.20;99.90;;;;;;4889787;29;20043;-80
2021/05/03 09:46:39;;;;;;;1.55;1.45;;;15.30;99.90;;;;;;4877297;29;20072;-80
2021/05/03 09:49:12;;;;;;;1.65;1.55;;;15.40;99.90;;;;;;4894034;29;20040;-79
2021/05/03 09:51:38;;;;;;;1.50;1.40;;;15.50;99.90;;;;;;4894696;29;20033;-79
2021/05/03 09:54:24;;;;;;;2.08;1.50;;;15.60;99.90;;;;;;4894830;29;20112;-80
2021/05/03 09:57:00;;;;;;;1.55;1.45;;;15.60;99.90;;;;;;4893403;29;20056;-79
2021/05/03 09:59:45;;;;;;;1.65;1.55;;;15.80;99.90;;;;;;4876095;29;20045;-80
2021/05/03 10:02:33;;;;;;;3.35;1.40;;;15.80;99.90;;;;;;4859160;29;20044;-80
2021/05/03 10:07:41;;;;;;;2.95;1.63;;;16.00;99.90;;;;;;4875526;29;20037;-77
2021/05/03 10:10:25;;;;;;;2.33;1.50;;;16.00;99.90;;;;;;4875716;29;20081;-81
2021/05/03 10:12:52;;;;;;;1.40;1.30;;;16.00;98.70;;;;;;4874722;29;20036;-80
2021/05/03 10:15:18;;;;;;;2.35;1.65;;;16.00;98.40;;;;;;4876275;29;20051;-80
2021/05/03 10:17:45;;;;;;;1.83;1.70;;;16.20;99.80;;;;;;4857077;29;20048;-80
2021/05/03 10:20:13;;;;;;;1.48;1.38;;;16.10;97.90;;;;;;4873370;29;20029;-80
2021/05/03 10:22:40;;;;;;;1.95;1.58;;;16.10;99.00;;;;;;4875687;29;20033;-79
2021/05/03 10:25:11;;;;;;;1.58;1.48;;;16.20;98.10;;;;;;4872650;29;20029;-80
2021/05/03 10:27:42;;;;;;;3.30;1.88;;;16.20;98.60;;;;;;4877464;29;20459;-80
2021/05/03 10:30:09;;;;;;;1.45;1.35;;;16.40;99.90;;;;;;4889869;29;20041;-80
2021/05/03 10:32:35;;;;;;;1.83;1.50;;;16.50;99.90;;;;;;4876649;29;20056;-80
2021/05/03 10:35:03;;;;;;;3.28;1.95;;;16.80;99.80;;;;;;4870757;29;20025;-77
2021/05/03 10:37:32;;;;;;;1.27;1.17;;;16.80;97.90;;;;;;4858942;29;20028;-80
2021/05/03 10:39:57;;;;;;;1.15;1.15;;;16.90;97.90;;;;;;4874852;29;20041;-80
2021/05/03 10:42:24;;;;;;;2.45;1.55;;;16.80;97.10;;;;;;4874660;29;20035;-81
2021/05/03 10:45:08;;;;;;;2.03;1.90;;;16.80;96.80;;;;;;4874876;29;20055;-80
2021/05/03 10:47:42;;;;;;;2.55;1.50;;;16.90;95.90;;;;;;4875185;29;20112;-80
2021/05/03 10:53:19;;;;;;;1.88;1.13;;;17.40;98.90;;;;;;4874646;29;20041;-80
2021/05/03 10:56:01;;;;;;;1.67;1.58;;;17.40;93.50;;;;;;4857484;29;20045;-80
2021/05/03 10:58:28;;;;;;;1.30;1.20;;;17.30;93.80;;;;;;4874550;29;20037;-80
2021/05/03 11:00:59;;;;;;;2.78;1.50;;;17.40;96.70;;;;;;4874879;29;20072;-80
2021/05/03 11:03:56;;;;;;;1.27;1.17;;;17.60;94.50;;;;;;4874475;29;20164;-80
2021/05/03 11:06:37;;;;;;;1.35;1.35;;;17.60;91.90;;;;;;4874877;29;20033;-80
2021/05/03 11:09:27;;;;;;;5.43;1.27;;;17.60;93.30;;;;;;4875005;29;20040;-81
2021/05/03 11:11:54;;;;;;;1.10;1.10;;;17.80;93.10;;;;;;4858701;29;20037;-80
2021/05/03 11:14:21;;;;;;;1.52;1.30;;;17.70;93.10;;;;;;4874907;29;20025;-81
2021/05/03 11:16:51;;;;;;;0.90;0.90;;;17.60;93.20;;;;;;4874979;29;20029;-80
2021/05/03 11:22:02;;;;;;;1.48;1.20;;;17.80;92.50;;;;;;4874797;29;20043;-81
2021/05/03 11:29:55;;;;;;;1.40;1.30;;;18.20;91.40;;;;;;4858484;29;20036;-81
2021/05/03 11:32:32;;;;;;;1.98;1.88;;;18.50;91.70;;;;;;4873624;29;20049;-81
2021/05/03 11:40:41;;;;;;;1.38;1.27;;;18.90;92.90;;;;;;4871449;29;20074;-77
2021/05/03 11:46:06;;;;;;;3.03;1.52;;;19.00;88.90;;;;;;4866384;29;20102;-76
2021/05/03 11:48:33;;;;;;;1.77;1.67;;;18.80;86.70;;;;;;4871400;29;20049;-74
2021/05/03 11:51:13;;;;;;;1.70;1.58;;;18.80;90.10;;;;;;4872922;29;20032;-73
2021/05/03 11:53:44;;;;;;;1.98;1.52;;;18.90;82.90;;;;;;4871560;29;20025;-76
2021/05/03 11:56:25;;;;;;;1.52;1.42;;;19.00;85.50;;;;;;4872620;29;20036;-76
2021/05/03 11:58:53;;;;;;;1.58;1.40;;;19.00;84.50;;;;;;4889265;29;20052;-76
2021/05/03 12:01:21;;;;;;;0.90;0.90;;;19.20;84.20;;;;;;4874660;29;20029;-76
2021/05/03 12:03:49;;;;;;;1.05;1.00;;;19.40;83.30;;;;;;4888866;29;20104;-76
2021/05/03 12:06:39;;;;;;;1.33;1.30;;;19.40;79.10;;;;;;4882289;29;20144;-73
2021/05/03 12:09:07;;;;;;;1.52;1.40;;;19.70;81.10;;;;;;4856878;29;20060;-76
2021/05/03 12:11:34;;;;;;;0.85;0.85;;;19.80;81.50;;;;;;4878475;29;20045;-76
2021/05/03 12:14:00;;;;;;;1.23;1.13;;;19.90;81.10;;;;;;4861604;29;20025;-74
2021/05/03 12:16:40;;;;;;;1.65;1.27;;;20.10;77.20;;;;;;4876880;29;20081;-73
2021/05/03 12:19:14;;;;;;;1.13;1.13;;;20.10;75.30;;;;;;4878510;29;20029;-73
2021/05/03 12:21:40;;;;;;;1.60;1.50;;;20.10;75.00;;;;;;4878163;29;20052;-76
2021/05/03 12:24:20;;;;;;;1.33;1.33;;;20.10;73.90;;;;;;4861339;29;20075;-76
2021/05/03 12:26:57;;;;;;;3.25;1.63;;;20.20;72.70;;;;;;4877958;29;20508;-74
2021/05/03 12:29:23;;;;;;;1.40;1.30;;;20.20;74.10;;;;;;4876778;29;20077;-73
2021/05/03 12:31:50;;;;;;;2.45;1.42;;;20.20;77.20;;;;;;4878076;29;20025;-74
2021/05/03 12:34:22;;;;;;;1.77;1.67;;;20.20;79.40;;;;;;4875861;29;20108;-76
2021/05/03 12:37:07;;;;;;;2.30;1.50;;;20.40;77.70;;;;;;4871693;29;20077;-76
2021/05/03 12:39:39;;;;;;;2.10;1.48;;;20.40;78.20;;;;;;4882022;29;20500;-77
2021/05/03 12:42:13;;;;;;;1.25;1.20;;;20.50;71.70;;;;;;4873785;29;20480;-75
2021/05/03 12:44:44;;;;;;;2.35;1.35;;;20.70;78.20;;;;;;4891104;29;20123;-76
2021/05/03 12:52:58;;;;;;;1.40;1.30;;;21.40;73.40;;;;;;4894809;29;20123;-76
2021/05/03 12:55:55;;;;;;;1.50;1.40;;;21.20;71.30;;;;;;4894456;29;20021;-76
2021/05/03 13:01:10;;;;;;;1.73;1.63;;;21.60;71.40;;;;;;4876604;29;20053;-77
2021/05/03 13:29:14;;;;;;;2.25;1.90;;;20.60;65.90;;;;;;4877628;29;20101;-73
2021/05/03 13:31:42;;;;;;;1.95;1.50;;;20.80;64.80;;;;;;4877994;29;20482;-73
2021/05/03 13:34:12;;;;;;;1.90;1.80;;;21.10;69.50;;;;;;4878108;29;20018;-73
2021/05/03 13:36:40;;;;;;;1.50;1.40;;;21.40;66.70;;;;;;4878431;29;20090;-73
2021/05/03 13:39:08;;;;;;;2.00;1.50;;;21.60;66.60;;;;;;4877813;29;20033;-73
2021/05/03 13:41:39;;;;;;;1.50;1.40;;;21.40;63.70;;;;;;4877594;29;20389;-73
2021/05/03 13:44:06;;;;;;;2.00;1.90;;;21.40;66.30;;;;;;4876610;29;20136;-72
2021/05/03 13:46:33;;;;;;;3.47;1.83;;;21.30;66.70;;;;;;4860718;29;20393;-72
2021/05/03 13:48:59;;;;;;;3.13;2.28;;;21.60;63.50;;;;;;4875217;29;20553;-75
2021/05/03 13:51:26;;;;;;;1.98;1.80;;;21.70;62.30;;;;;;4876212;29;20497;-72
2021/05/03 13:53:52;;;;;;;4.85;1.45;;;21.70;62.70;;;;;;4875494;29;20040;-75
2021/05/03 13:56:18;;;;;;;2.28;2.15;;;21.90;63.30;;;;;;4876174;29;20036;-72
2021/05/03 13:58:44;;;;;;;2.95;2.10;;;21.90;62.10;;;;;;4875252;29;20033;-72
2021/05/03 14:01:10;;;;;;;2.88;2.20;;;21.80;61.90;;;;;;4875102;29;20025;-72
2021/05/03 14:03:36;;;;;;;3.83;2.10;;;21.80;59.90;;;;;;4875936;29;20027;-73